createdAt,value
2024-01-20T00:02:06.495Z,9.87
2024-01-20T00:04:35.759Z,8.73
2024-01-20T00:07:11.137Z,9.40
2024-01-20T00:09:50.112Z,6.90
2024-01-20T00:12:24.624Z,8.93
2024-01-20T00:14:55.193Z,7.20
2024-01-20T00:17:26.876Z,8.30
2024-01-20T00:19:57.182Z,7.77
2024-01-20T00:22:25.762Z,8.20
2024-01-20T00:24:54.214Z,8.10
2024-01-20T00:27:24.474Z,7.50
2024-01-20T00:29:52.868Z,5.27
2024-01-20T00:32:21.341Z,4.97
2024-01-20T00:34:59.773Z,4.57
2024-01-20T00:37:36.806Z,4.27
2024-01-20T00:40:06.628Z,4.27
2024-01-20T00:42:37.701Z,4.93
2024-01-20T00:45:07.054Z,4.77
2024-01-20T00:47:38.623Z,4.27
2024-01-20T00:50:12.984Z,3.80
2024-01-20T00:52:43.167Z,4.97
2024-01-20T00:55:13.156Z,4.30
2024-01-20T00:57:47.610Z,3.83
2024-01-20T01:00:20.152Z,3.53
2024-01-20T01:02:58.688Z,3.90
2024-01-20T01:05:29.604Z,3.73
2024-01-20T01:07:59.214Z,3.47
2024-01-20T01:10:30.933Z,3.40
2024-01-20T01:13:05.043Z,3.20
2024-01-20T01:15:34.705Z,2.70
2024-01-20T01:18:07.736Z,3.10
2024-01-20T01:20:37.055Z,3.13
2024-01-20T01:23:13.579Z,2.67
2024-01-20T01:25:44.946Z,2.87
2024-01-20T01:28:26.738Z,2.60
2024-01-20T01:30:55.143Z,2.00
2024-01-20T01:33:27.610Z,1.90
2024-01-20T01:38:49.404Z,2.00
2024-01-20T01:41:19.048Z,1.97
2024-01-20T01:43:48.991Z,2.13
2024-01-20T01:46:24.652Z,1.80
2024-01-20T01:48:53.188Z,2.27
2024-01-20T01:51:22.692Z,2.10
2024-01-20T01:53:57.469Z,2.00
2024-01-20T01:56:32.936Z,1.60
2024-01-20T01:59:04.591Z,2.00
2024-01-20T02:01:33.075Z,1.73
2024-01-20T02:04:09.333Z,2.10
2024-01-20T02:06:37.851Z,1.90
2024-01-20T02:09:12.090Z,2.00
2024-01-20T02:11:48.551Z,2.37
2024-01-20T02:14:21.290Z,2.30
2024-01-20T02:16:59.889Z,2.27
2024-01-20T02:19:28.461Z,2.47
2024-01-20T02:21:56.898Z,2.47
2024-01-20T02:24:30.561Z,2.70
2024-01-20T02:27:00.674Z,2.90
2024-01-20T02:29:30.671Z,3.13
2024-01-20T02:32:00.620Z,3.50
2024-01-20T02:34:29.142Z,2.93
2024-01-20T02:36:57.953Z,3.37
2024-01-20T02:39:27.916Z,3.23
2024-01-20T02:41:56.226Z,3.00
2024-01-20T02:44:24.965Z,3.37
2024-01-20T02:46:54.472Z,3.27
2024-01-20T02:49:23.654Z,3.07
2024-01-20T02:51:55.557Z,3.53
2024-01-20T02:54:24.945Z,3.40
2024-01-20T02:56:56.445Z,3.80
2024-01-20T02:59:24.955Z,3.17
2024-01-20T03:01:55.177Z,3.40
2024-01-20T03:04:24.912Z,2.80
2024-01-20T03:06:54.688Z,3.20
2024-01-20T03:09:26.616Z,3.17
2024-01-20T03:11:56.512Z,2.80
2024-01-20T03:14:24.881Z,3.40
2024-01-20T03:16:56.811Z,3.30
2024-01-20T03:19:29.697Z,3.33
2024-01-20T03:21:58.683Z,3.63
2024-01-20T03:24:27.064Z,3.50
2024-01-20T03:26:59.829Z,4.40
2024-01-20T03:29:28.435Z,3.70
2024-01-20T03:31:56.864Z,4.10
2024-01-20T03:34:25.303Z,3.87
2024-01-20T03:36:53.900Z,3.87
2024-01-20T03:39:23.307Z,4.20
2024-01-20T03:41:59.251Z,3.83
2024-01-20T03:44:27.589Z,4.13
2024-01-20T03:46:55.953Z,4.70
2024-01-20T03:49:25.571Z,4.93
2024-01-20T03:51:54.006Z,5.23
2024-01-20T03:54:22.495Z,4.40
2024-01-20T03:56:51.947Z,4.33
2024-01-20T03:59:22.127Z,5.20
2024-01-20T04:01:52.633Z,5.00
2024-01-20T04:04:21.116Z,4.83
2024-01-20T04:06:51.633Z,5.30
2024-01-20T04:09:21.160Z,4.40
2024-01-20T04:11:49.795Z,5.00
2024-01-20T04:14:24.820Z,4.83
2024-01-20T04:16:55.344Z,5.53
2024-01-20T04:19:25.257Z,5.70
2024-01-20T04:21:55.615Z,5.53
2024-01-20T04:24:24.952Z,6.27
2024-01-20T04:26:53.315Z,5.77
2024-01-20T04:29:21.659Z,6.50
2024-01-20T04:31:52.912Z,5.63
2024-01-20T04:34:23.948Z,5.43
2024-01-20T04:36:52.702Z,6.10
2024-01-20T04:39:21.269Z,5.40
2024-01-20T04:41:49.672Z,5.00
2024-01-20T04:44:18.009Z,5.20
2024-01-20T04:46:47.077Z,5.17
2024-01-20T04:49:18.987Z,5.43
2024-01-20T04:51:55.611Z,6.10
2024-01-20T04:54:25.953Z,6.47
2024-01-20T04:56:54.408Z,6.23
2024-01-20T04:59:23.285Z,5.13
2024-01-20T05:01:56.006Z,6.10
2024-01-20T05:04:31.306Z,5.67
2024-01-20T05:07:03.712Z,5.33
2024-01-20T05:09:32.378Z,5.23
2024-01-20T05:12:03.714Z,4.93
2024-01-20T05:14:32.320Z,4.80
2024-01-20T05:17:00.783Z,5.20
2024-01-20T05:19:29.273Z,5.30
2024-01-20T05:21:58.824Z,5.70
2024-01-20T05:24:28.862Z,4.90
2024-01-20T05:26:57.356Z,6.23
2024-01-20T05:29:25.720Z,5.10
2024-01-20T05:31:55.145Z,4.57
2024-01-20T05:34:28.136Z,4.63
2024-01-20T05:36:56.768Z,5.07
2024-01-20T05:39:25.110Z,4.77
2024-01-20T05:41:54.911Z,4.73
2024-01-20T05:44:28.007Z,5.30
2024-01-20T05:46:56.351Z,5.30
2024-01-20T05:49:27.503Z,4.40
2024-01-20T05:51:56.732Z,4.73
2024-01-20T05:54:25.129Z,4.40
2024-01-20T05:56:55.072Z,3.83
2024-01-20T05:59:23.393Z,4.60
2024-01-20T06:01:52.628Z,4.50
2024-01-20T06:04:21.121Z,4.10
2024-01-20T06:06:50.234Z,3.83
2024-01-20T06:09:18.640Z,4.80
2024-01-20T06:11:47.020Z,4.13
2024-01-20T06:14:17.062Z,3.87
2024-01-20T06:16:45.413Z,4.40
2024-01-20T06:19:14.508Z,4.37
2024-01-20T06:21:43.662Z,4.13
2024-01-20T06:24:13.242Z,4.13
2024-01-20T06:26:41.564Z,3.73
2024-01-20T06:29:09.903Z,4.20
2024-01-20T06:31:39.826Z,4.73
2024-01-20T06:34:08.351Z,3.67
2024-01-20T06:36:36.764Z,4.23
2024-01-20T06:39:06.146Z,4.30
2024-01-20T06:41:34.583Z,5.23
2024-01-20T06:44:02.918Z,4.40
2024-01-20T06:46:31.365Z,4.10
2024-01-20T06:49:01.366Z,3.37
2024-01-20T06:51:29.851Z,3.77
2024-01-20T06:54:00.860Z,4.70
2024-01-20T06:56:29.628Z,5.07
2024-01-20T06:58:58.275Z,4.23
2024-01-20T07:01:26.713Z,3.60
2024-01-20T07:03:55.727Z,5.00
2024-01-20T07:06:29.490Z,5.20
2024-01-20T07:08:58.039Z,5.43
2024-01-20T07:11:27.333Z,4.13
2024-01-20T07:13:55.759Z,6.80
2024-01-20T07:16:27.131Z,8.57
2024-01-20T07:19:29.170Z,7.20
2024-01-20T07:21:58.935Z,6.80
2024-01-20T07:24:29.095Z,5.30
2024-01-20T07:26:57.537Z,6.70
2024-01-20T07:29:26.757Z,5.07
2024-01-20T07:31:55.358Z,5.80
2024-01-20T07:34:23.920Z,5.30
2024-01-20T07:36:52.462Z,5.80
2024-01-20T07:39:22.298Z,7.47
2024-01-20T07:41:50.796Z,6.53
2024-01-20T07:44:19.120Z,5.30
2024-01-20T07:46:47.468Z,6.00
2024-01-20T07:49:15.878Z,6.30
2024-01-20T07:51:44.238Z,7.67
2024-01-20T07:54:13.632Z,5.60
2024-01-20T07:56:43.536Z,7.80
2024-01-20T07:59:11.820Z,8.27
2024-01-20T08:01:40.298Z,6.90
2024-01-20T08:04:09.157Z,7.83
2024-01-20T08:06:38.574Z,5.53
2024-01-20T08:09:07.916Z,7.93
2024-01-20T08:11:36.326Z,6.90
2024-01-20T08:14:07.008Z,4.70
2024-01-20T08:16:35.347Z,5.70
2024-01-20T08:19:03.948Z,3.97
2024-01-20T08:21:32.475Z,5.67
2024-01-20T08:24:02.085Z,4.50
2024-01-20T08:26:33.511Z,4.00
2024-01-20T08:29:03.134Z,4.43
2024-01-20T08:31:33.084Z,5.97
2024-01-20T08:34:01.746Z,4.83
2024-01-20T08:36:30.421Z,5.20
2024-01-20T08:38:59.335Z,4.93
2024-01-20T08:41:28.063Z,5.60
2024-01-20T08:43:56.562Z,5.00
2024-01-20T08:46:26.592Z,5.87
2024-01-20T08:48:56.535Z,4.70
2024-01-20T08:51:24.871Z,4.87
2024-01-20T08:53:53.510Z,5.40
2024-01-20T08:56:21.977Z,6.20
2024-01-20T08:58:50.730Z,4.60
2024-01-20T09:01:19.155Z,4.47
2024-01-20T09:03:49.624Z,4.90
2024-01-20T09:06:19.549Z,3.80
2024-01-20T09:08:47.932Z,4.00
2024-01-20T09:11:16.645Z,4.90
2024-01-20T09:13:47.395Z,3.87
2024-01-20T09:16:16.083Z,4.30
2024-01-20T09:18:44.929Z,4.73
2024-01-20T09:21:14.776Z,5.90
2024-01-20T09:23:44.849Z,6.90
2024-01-20T09:26:13.380Z,4.40
2024-01-20T09:28:42.205Z,4.83
2024-01-20T09:31:10.559Z,4.90
2024-01-20T09:33:39.132Z,5.50
2024-01-20T09:36:08.771Z,4.67
2024-01-20T09:38:37.595Z,4.73
2024-01-20T09:41:11.193Z,4.20
2024-01-20T09:43:41.608Z,3.20
2024-01-20T09:46:11.681Z,4.03
2024-01-20T09:48:45.556Z,3.17
2024-01-20T09:51:14.531Z,4.67
2024-01-20T09:53:53.683Z,3.53
2024-01-20T09:56:30.127Z,4.87
2024-01-20T09:59:01.490Z,5.17
2024-01-20T10:01:30.323Z,4.10
2024-01-20T10:04:03.070Z,4.10
2024-01-20T10:06:31.621Z,4.13
2024-01-20T10:09:00.181Z,4.57
2024-01-20T10:11:31.269Z,3.97
2024-01-20T10:13:59.598Z,3.50
2024-01-20T10:16:27.953Z,3.17
2024-01-20T10:18:56.559Z,3.33
2024-01-20T10:21:26.160Z,4.30
2024-01-20T10:23:54.806Z,4.10
2024-01-20T10:26:24.642Z,3.40
2024-01-20T10:28:56.087Z,4.07
2024-01-20T10:34:22.741Z,4.70
2024-01-20T10:37:07.174Z,3.40
2024-01-20T10:39:42.713Z,2.63
2024-01-20T10:42:13.844Z,3.70
2024-01-20T10:45:54.338Z,3.70
2024-01-20T10:48:28.612Z,4.43
2024-01-20T10:51:27.340Z,4.77
2024-01-20T10:53:57.503Z,6.87
2024-01-20T10:56:33.367Z,3.57
2024-01-20T10:59:17.174Z,3.50
2024-01-20T11:01:57.172Z,5.47
2024-01-20T11:04:25.749Z,5.07
2024-01-20T11:06:55.085Z,4.80
2024-01-20T11:09:24.254Z,5.50
2024-01-20T11:12:03.149Z,4.60
2024-01-20T11:14:31.924Z,4.17
2024-01-20T11:17:11.413Z,6.00
2024-01-20T11:19:39.867Z,4.70
2024-01-20T11:28:44.196Z,6.13
2024-01-20T11:31:36.177Z,5.40
2024-01-20T11:34:54.380Z,6.40
2024-01-20T11:37:26.315Z,6.00
2024-01-20T11:40:06.469Z,6.07
2024-01-20T11:42:35.008Z,7.53
2024-01-20T11:45:03.824Z,6.50
2024-01-20T11:47:33.319Z,7.20
2024-01-20T11:50:04.387Z,5.50
2024-01-20T11:52:34.299Z,7.10
2024-01-20T11:55:03.116Z,6.37
2024-01-20T11:57:32.440Z,7.30
2024-01-20T12:00:01.292Z,5.77
2024-01-20T12:02:31.285Z,6.23
2024-01-20T12:05:04.505Z,7.40
2024-01-20T12:07:38.302Z,6.50
2024-01-20T12:10:07.158Z,7.67
2024-01-20T12:12:35.660Z,7.73
2024-01-20T12:15:08.264Z,7.43
2024-01-20T12:17:37.742Z,8.03
2024-01-20T12:20:07.126Z,8.10
2024-01-20T12:22:35.520Z,7.40
2024-01-20T12:25:06.007Z,6.87
2024-01-20T12:27:34.784Z,6.30
2024-01-20T12:30:05.026Z,7.07
2024-01-20T12:32:33.563Z,6.80
2024-01-20T12:35:02.071Z,7.23
2024-01-20T12:37:30.561Z,7.50
2024-01-20T12:39:59.071Z,5.97
2024-01-20T12:42:28.912Z,7.07
2024-01-20T12:44:57.472Z,7.67
2024-01-20T12:47:26.046Z,6.27
2024-01-20T12:49:54.649Z,6.37
2024-01-20T12:52:23.761Z,7.50
2024-01-20T12:54:52.187Z,6.00
2024-01-20T12:57:20.663Z,7.47
2024-01-20T12:59:50.437Z,6.50
2024-01-20T13:02:18.867Z,7.30
2024-01-20T13:04:47.360Z,6.10
2024-01-20T13:07:15.806Z,8.00
2024-01-20T13:09:44.289Z,7.70
2024-01-20T13:12:12.693Z,7.57
2024-01-20T13:14:42.734Z,7.93
2024-01-20T13:17:14.843Z,7.70
2024-01-20T13:19:43.768Z,8.80
2024-01-20T13:22:13.686Z,7.70
2024-01-20T13:24:43.270Z,9.40
2024-01-20T13:27:14.031Z,9.17
2024-01-20T13:29:42.536Z,8.47
2024-01-20T13:32:13.268Z,8.57
2024-01-20T13:34:41.745Z,6.90
2024-01-20T13:37:10.258Z,8.60
2024-01-20T13:39:38.691Z,8.03
2024-01-20T13:42:07.832Z,7.40
2024-01-20T13:44:36.218Z,8.90
2024-01-20T13:47:07.662Z,8.07
2024-01-20T13:49:37.877Z,9.57
2024-01-20T13:52:06.879Z,8.80
2024-01-20T13:54:35.303Z,8.30
2024-01-20T13:57:04.231Z,6.83
2024-01-20T13:59:33.697Z,7.97
2024-01-20T14:02:02.080Z,8.90
2024-01-20T14:04:30.581Z,9.37
2024-01-20T14:07:06.034Z,10.47
2024-01-20T14:09:35.287Z,10.77
2024-01-20T14:12:03.822Z,7.97
2024-01-20T14:14:32.427Z,12.30
2024-01-20T14:17:01.736Z,10.27
2024-01-20T14:19:30.348Z,9.50
2024-01-20T14:22:00.367Z,10.97
2024-01-20T14:24:29.119Z,10.93
2024-01-20T14:26:57.740Z,11.50
2024-01-20T14:29:26.277Z,16.07
2024-01-20T14:31:54.631Z,12.00
2024-01-20T14:34:24.313Z,15.17
2024-01-20T14:36:53.676Z,9.50
2024-01-20T14:39:23.984Z,5.77
2024-01-20T14:41:52.520Z,5.90
2024-01-20T14:44:20.973Z,4.63
2024-01-20T14:46:51.005Z,8.40
2024-01-20T14:49:19.590Z,9.03
2024-01-20T14:51:48.100Z,9.97
2024-01-20T14:54:16.680Z,9.90
2024-01-20T14:56:46.514Z,12.23
2024-01-20T14:59:17.067Z,12.30
2024-01-20T15:01:48.873Z,15.70
2024-01-20T15:04:17.679Z,11.80
2024-01-20T15:06:46.170Z,10.03
2024-01-20T15:09:14.847Z,11.10
2024-01-20T15:11:43.995Z,7.83
2024-01-20T15:14:14.362Z,8.10
2024-01-20T15:16:43.157Z,8.10
2024-01-20T15:19:12.036Z,7.70
2024-01-20T15:21:40.663Z,6.00
2024-01-20T15:24:09.199Z,8.10
2024-01-20T15:26:38.286Z,8.33
2024-01-20T15:29:10.893Z,7.80
2024-01-20T15:31:42.779Z,10.90
2024-01-20T15:34:11.424Z,10.47
2024-01-20T15:36:43.149Z,11.27
2024-01-20T15:39:11.637Z,8.93
2024-01-20T15:41:40.254Z,13.47
2024-01-20T15:44:10.856Z,7.00
2024-01-20T15:46:39.995Z,9.23
2024-01-20T15:49:09.879Z,8.93
2024-01-20T15:51:39.616Z,11.37
2024-01-20T15:54:08.172Z,8.70
2024-01-20T15:56:42.639Z,9.80
2024-01-20T15:59:11.125Z,10.97
2024-01-20T16:01:39.612Z,11.93
2024-01-20T16:04:09.757Z,10.40
2024-01-20T16:06:40.240Z,9.80
2024-01-20T16:09:08.963Z,9.20
2024-01-20T16:11:37.688Z,9.63
2024-01-20T16:14:07.403Z,11.20
2024-01-20T16:16:35.729Z,11.60
2024-01-20T16:19:04.275Z,12.10
2024-01-20T16:21:34.342Z,12.43
2024-01-20T16:24:03.067Z,10.83
2024-01-20T16:26:32.772Z,12.50
2024-01-20T16:29:01.193Z,12.23
2024-01-20T16:31:30.836Z,12.90
2024-01-20T16:33:59.386Z,12.17
2024-01-20T16:36:28.933Z,9.90
2024-01-20T16:38:58.731Z,11.70
2024-01-20T16:41:27.213Z,12.37
2024-01-20T16:43:55.580Z,9.63
2024-01-20T16:46:24.117Z,10.63
2024-01-20T16:48:52.720Z,10.60
2024-01-20T16:51:26.880Z,9.90
2024-01-20T16:53:56.133Z,9.67
2024-01-20T16:56:25.954Z,10.30
2024-01-20T16:58:54.345Z,9.93
2024-01-20T17:01:23.979Z,10.87
2024-01-20T17:03:52.540Z,9.10
2024-01-20T17:06:21.380Z,10.07
2024-01-20T17:08:49.903Z,9.80
2024-01-20T17:11:18.260Z,11.80
2024-01-20T17:13:50.215Z,9.43
2024-01-20T17:16:19.818Z,10.87
2024-01-20T17:18:48.837Z,10.77
2024-01-20T17:21:18.051Z,11.10
2024-01-20T17:23:46.729Z,10.27
2024-01-20T17:26:15.168Z,10.00
2024-01-20T17:28:43.797Z,7.40
2024-01-20T17:31:13.557Z,10.30
2024-01-20T17:33:43.043Z,11.00
2024-01-20T17:36:11.558Z,11.50
2024-01-20T17:38:40.472Z,9.10
2024-01-20T17:41:08.938Z,10.20
2024-01-20T17:43:37.753Z,8.20
2024-01-20T17:46:06.601Z,10.03
2024-01-20T17:48:37.348Z,10.67
2024-01-20T17:51:06.263Z,11.23
2024-01-20T17:53:36.095Z,9.27
2024-01-20T17:56:05.631Z,10.10
2024-01-20T17:58:35.476Z,9.90
2024-01-20T18:01:04.316Z,9.43
2024-01-20T18:03:34.262Z,10.87
2024-01-20T18:06:04.439Z,11.90
2024-01-20T18:08:32.920Z,10.40
2024-01-20T18:11:01.400Z,10.93
2024-01-20T18:13:29.825Z,11.70
2024-01-20T18:15:59.012Z,11.20
2024-01-20T18:18:27.917Z,10.30
2024-01-20T18:20:56.575Z,10.43
2024-01-20T18:23:26.370Z,10.33
2024-01-20T18:25:54.881Z,11.10
2024-01-20T18:28:23.655Z,9.47
2024-01-20T18:30:52.665Z,10.93
2024-01-20T18:33:22.765Z,10.07
2024-01-20T18:35:51.296Z,10.37
2024-01-20T18:38:19.702Z,10.80
2024-01-20T18:40:49.669Z,9.23
2024-01-20T18:43:18.089Z,11.20
2024-01-20T18:45:46.521Z,11.57
2024-01-20T18:48:15.462Z,10.27
2024-01-20T18:50:44.021Z,11.70
2024-01-20T18:53:15.260Z,12.50
2024-01-20T18:55:43.872Z,12.37
2024-01-20T18:58:14.490Z,10.50
2024-01-20T19:00:43.245Z,9.67
2024-01-20T19:03:11.744Z,10.00
2024-01-20T19:05:40.351Z,9.50
2024-01-20T19:08:08.867Z,9.33
2024-01-20T19:10:40.607Z,10.73
2024-01-20T19:13:09.320Z,11.30
2024-01-20T19:15:39.369Z,8.40
2024-01-20T19:18:08.628Z,8.80
2024-01-20T19:20:41.396Z,9.80
2024-01-20T19:23:10.078Z,9.50
2024-01-20T19:25:38.610Z,8.47
2024-01-20T19:28:07.565Z,8.80
2024-01-20T19:30:36.061Z,7.63
2024-01-20T19:33:06.655Z,8.80
2024-01-20T19:35:35.834Z,8.00
2024-01-20T19:38:04.805Z,10.33
2024-01-20T19:40:33.383Z,8.17
2024-01-20T19:43:01.971Z,7.97
2024-01-20T19:45:30.883Z,8.37
2024-01-20T19:47:59.310Z,8.83
2024-01-20T19:50:29.266Z,9.10
2024-01-20T19:52:59.615Z,8.27
2024-01-20T19:55:28.839Z,8.80
2024-01-20T19:57:57.758Z,9.20
2024-01-20T20:00:26.318Z,9.67
2024-01-20T20:03:00.254Z,8.33
2024-01-20T20:05:32.182Z,8.30
2024-01-20T20:08:02.422Z,7.30
2024-01-20T20:10:30.914Z,7.67
2024-01-20T20:13:00.454Z,7.90
2024-01-20T20:15:28.927Z,7.80
2024-01-20T20:17:57.827Z,7.57
2024-01-20T20:20:26.614Z,7.33
2024-01-20T20:22:56.660Z,7.90
2024-01-20T20:25:58.380Z,7.60
2024-01-20T20:28:27.204Z,6.43
2024-01-20T20:31:01.445Z,6.90
2024-01-20T20:33:35.772Z,7.60
2024-01-20T20:36:05.119Z,6.80
2024-01-20T20:38:37.222Z,7.90
2024-01-20T20:41:06.930Z,8.23
2024-01-20T20:43:36.173Z,7.10
2024-01-20T20:46:05.164Z,8.07
2024-01-20T20:48:34.143Z,7.70
2024-01-20T20:51:02.901Z,8.50
2024-01-20T20:53:31.814Z,7.33
2024-01-20T20:56:01.867Z,7.50
2024-01-20T20:58:31.055Z,7.20
2024-01-20T21:01:00.019Z,8.97
2024-01-20T21:03:28.599Z,8.60
2024-01-20T21:05:57.946Z,8.20
2024-01-20T21:08:27.218Z,8.50
2024-01-20T21:10:56.845Z,11.67
2024-01-20T21:13:27.403Z,8.90
2024-01-20T21:15:58.884Z,9.70
2024-01-20T21:18:29.077Z,9.63
2024-01-20T21:20:57.521Z,10.73
2024-01-20T21:23:25.928Z,10.55
2024-01-20T21:25:55.363Z,9.40
2024-01-20T21:28:23.827Z,10.13
2024-01-20T21:30:55.092Z,11.40
2024-01-20T21:33:23.993Z,8.33
2024-01-20T21:35:52.444Z,9.55
2024-01-20T21:38:20.866Z,9.20
2024-01-20T21:40:50.000Z,8.73
2024-01-20T21:43:18.521Z,10.03
2024-01-20T21:45:48.152Z,9.95
2024-01-20T21:48:18.210Z,11.77
2024-01-20T21:50:46.713Z,10.45
2024-01-20T21:53:15.794Z,11.13
2024-01-20T21:55:44.148Z,10.00
2024-01-20T21:58:12.951Z,9.82
2024-01-20T22:00:43.933Z,11.10
2024-01-20T22:03:14.997Z,11.02
2024-01-20T22:05:45.145Z,12.50
2024-01-20T22:08:14.242Z,10.73
2024-01-20T22:10:42.690Z,11.18
2024-01-20T22:13:12.732Z,10.40
2024-01-20T22:15:43.043Z,10.35
2024-01-20T22:18:11.965Z,10.85
2024-01-20T22:20:40.947Z,10.45
2024-01-20T22:23:10.830Z,11.70
2024-01-20T22:25:39.188Z,12.02
2024-01-20T22:28:07.901Z,10.98
2024-01-20T22:30:36.275Z,11.23
2024-01-20T22:33:05.160Z,10.70
2024-01-20T22:35:33.559Z,11.03
2024-01-20T22:38:01.909Z,11.20
2024-01-20T22:40:32.775Z,11.05
2024-01-20T22:43:01.154Z,11.95
2024-01-20T22:45:29.556Z,10.65
2024-01-20T22:47:58.014Z,11.30
2024-01-20T22:50:26.805Z,11.95
2024-01-20T22:52:55.273Z,11.50
2024-01-20T22:55:23.754Z,10.13
2024-01-20T22:57:53.631Z,11.40
2024-01-20T23:00:27.265Z,11.02
2024-01-20T23:02:56.453Z,11.80
2024-01-20T23:05:25.292Z,11.55
2024-01-20T23:07:54.881Z,11.68
2024-01-20T23:10:23.225Z,11.82
2024-01-20T23:12:53.346Z,11.65
2024-01-20T23:15:21.927Z,11.20
2024-01-20T23:17:50.370Z,11.48
2024-01-20T23:20:18.779Z,11.27
2024-01-20T23:22:47.402Z,14.45
2024-01-20T23:25:15.860Z,13.80
2024-01-20T23:27:44.301Z,13.00
2024-01-20T23:30:14.929Z,13.35
2024-01-20T23:32:43.961Z,14.45
2024-01-20T23:35:12.923Z,14.00
2024-01-20T23:37:41.770Z,11.30
2024-01-20T23:40:12.487Z,11.65
2024-01-20T23:42:42.053Z,11.05
2024-01-20T23:45:13.619Z,10.20
2024-01-20T23:47:43.482Z,11.90
2024-01-20T23:50:12.657Z,11.27
2024-01-20T23:52:41.306Z,11.52
2024-01-20T23:55:10.599Z,10.88
2024-01-20T23:57:40.537Z,12.85
